Airfield :
LOGIN :

Register | Disclaimer

   EN    FR    IT 

 










Legend :    VFR   Marginal VFR   IFR   Intensive IFR   Very Intensive IFR
Visi :
Ceiling :
>= 8 km
>= 3000ft
5 to 8 km
1000 to 3000 ft
1500m to 5 km
500 to 1000 ft
800 to 1500m
200 to 500 ft
< 800m
< 200 ft
Symbols :   Thunderstorms  Fog  Heavy snow  Heavy precipitations  Wind > 20 kt
SIGMETs :     Misc.  Thunderstorms  Icing  Turbulence  Mountain Waves  Volcanic Ashes






- Airport Elevation : 28 ft
- IATA code : SOZ


LFKS - Solenzara

CURRENT METAR :
  • 262330Z AUTO 19007G17KT 120V250 9999 FEW078/// ///CB 18/01 Q1002

EXPIRED METARs :
  • 262300Z AUTO 19004KT 130V250 9999 FEW068/// BKN082/// ///TCU 18/03 Q1002
  • 262230Z AUTO 16004KT 080V220 9999 OVC074 18/03 Q1003
  • 262200Z AUTO VRB07KT 9999 OVC074 18/04 Q1003
  • 262130Z AUTO VRB04KT 9999 BKN074 OVC088 18/03 Q1002
  • 262100Z AUTO VRB07G19KT 9999 BKN070 18/03 Q1002

TAF TAF LFKS
Valid from the 26 at 21:00 until the 27 at 21:00 UTC


262000Z 2621/2721 29015G35KT CAVOK
PROB30
TEMPO 2700/2706 29025G45KT 3000 TSRA SCT025 SCT040CB
BECMG 2703/2705 31005KT
TEMPO 2712/2716 VRB15G30KT 3000 TSRA SCT025 SCT030CB



MET'MAP, your aeronautical weather chart ! - Copyright ORBIFLY December 2007 - Disclaimer

ORBIFLY MET'MAP TEAM :

Programming & Development : Alexandra Zaïnal
Concept & original design : Baudouin d'Aumeries
Assistance for programming : Marc-Olivier Méhu
Technical & hardware support : Manuel Goepfert

Contact : metmap@orbifly.com




SOURCES & CREDITS :

   NOAA